createdAt,value
2023-05-09T00:02:29.801Z,10.30
2023-05-09T00:05:32.930Z,8.10
2023-05-09T00:08:36.327Z,8.73
2023-05-09T00:11:39.703Z,8.60
2023-05-09T00:14:45.659Z,7.00
2023-05-09T00:17:48.647Z,6.13
2023-05-09T00:20:51.607Z,6.53
2023-05-09T00:23:54.530Z,7.33
2023-05-09T00:26:57.430Z,4.57
2023-05-09T00:30:00.375Z,6.00
2023-05-09T00:33:03.406Z,6.27
2023-05-09T00:36:06.763Z,9.43
2023-05-09T00:39:10.035Z,5.82
2023-05-09T00:42:14.298Z,5.88
2023-05-09T00:45:17.595Z,5.57
2023-05-09T00:48:22.656Z,4.97
2023-05-09T00:51:26.018Z,7.05
2023-05-09T00:54:29.169Z,6.07
2023-05-09T00:57:32.039Z,6.50
2023-05-09T01:00:34.795Z,7.60
2023-05-09T01:03:40.033Z,6.20
2023-05-09T01:07:06.442Z,6.53
2023-05-09T01:10:29.600Z,6.17
2023-05-09T01:13:59.800Z,5.53
2023-05-09T01:17:13.729Z,6.78
2023-05-09T01:20:46.852Z,7.75
2023-05-09T01:24:08.860Z,5.57
2023-05-09T01:27:27.283Z,7.38
2023-05-09T01:30:33.546Z,7.10
2023-05-09T01:33:40.898Z,6.22
2023-05-09T01:36:46.133Z,7.87
2023-05-09T01:39:53.497Z,6.22
2023-05-09T01:43:04.997Z,4.50
2023-05-09T01:46:09.526Z,5.00
2023-05-09T01:49:13.192Z,3.90
2023-05-09T01:52:20.357Z,5.00
2023-05-09T01:55:26.065Z,4.13
2023-05-09T01:58:30.153Z,4.60
2023-05-09T02:01:33.284Z,3.00
2023-05-09T02:04:37.837Z,4.05
2023-05-09T02:07:42.876Z,3.80
2023-05-09T02:10:48.191Z,3.08
2023-05-09T02:13:51.483Z,3.87
2023-05-09T02:16:54.882Z,3.42
2023-05-09T02:19:58.425Z,3.42
2023-05-09T02:23:01.712Z,4.72
2023-05-09T02:26:04.924Z,3.63
2023-05-09T02:29:08.576Z,3.03
2023-05-09T02:32:18.242Z,3.60
2023-05-09T02:35:23.569Z,3.83
2023-05-09T02:38:27.426Z,3.37
2023-05-09T02:41:32.139Z,3.47
2023-05-09T02:44:35.752Z,2.53
2023-05-09T02:47:40.429Z,3.80
2023-05-09T02:50:44.748Z,3.07
2023-05-09T02:53:48.434Z,2.67
2023-05-09T02:56:52.533Z,2.60
2023-05-09T02:59:57.651Z,4.18
2023-05-09T03:03:02.736Z,2.90
2023-05-09T03:06:06.852Z,2.95
2023-05-09T03:09:11.886Z,2.63
2023-05-09T03:12:17.414Z,3.03
2023-05-09T03:15:24.382Z,2.80
2023-05-09T03:18:32.575Z,3.30
2023-05-09T03:21:49.364Z,3.05
2023-05-09T03:25:06.277Z,3.05
2023-05-09T03:28:12.908Z,2.97
2023-05-09T03:31:17.885Z,3.63
2023-05-09T03:34:24.907Z,2.55
2023-05-09T03:37:28.886Z,2.67
2023-05-09T03:40:41.675Z,3.03
2023-05-09T03:43:48.546Z,3.70
2023-05-09T03:46:57.649Z,2.97
2023-05-09T03:50:03.092Z,4.57
2023-05-09T03:53:10.795Z,4.20
2023-05-09T03:56:19.177Z,4.63
2023-05-09T03:59:32.268Z,4.60
2023-05-09T04:02:37.148Z,3.97
2023-05-09T04:05:41.802Z,3.43
2023-05-09T04:08:54.090Z,3.30
2023-05-09T04:11:57.864Z,3.20
2023-05-09T04:15:02.698Z,3.88
2023-05-09T04:18:08.572Z,3.95
2023-05-09T04:21:12.218Z,2.77
2023-05-09T04:24:16.829Z,3.95
2023-05-09T04:27:24.201Z,4.38
2023-05-09T04:30:28.204Z,3.67
2023-05-09T04:33:32.194Z,3.17
2023-05-09T04:36:39.018Z,3.30
2023-05-09T04:39:42.334Z,8.05
2023-05-09T04:42:53.684Z,3.40
2023-05-09T04:46:01.547Z,3.00
2023-05-09T04:49:06.197Z,24.20
2023-05-09T04:52:09.571Z,3.15
2023-05-09T04:55:13.316Z,4.35
2023-05-09T04:58:20.817Z,2.53
2023-05-09T05:01:24.458Z,5.10
2023-05-09T05:04:28.688Z,2.80
2023-05-09T05:07:35.149Z,4.28
2023-05-09T05:10:47.460Z,3.25
2023-05-09T05:13:53.269Z,4.60
2023-05-09T05:16:57.188Z,2.97
2023-05-09T05:20:01.997Z,2.08
2023-05-09T05:23:12.957Z,2.17
2023-05-09T05:26:36.529Z,3.10
2023-05-09T05:29:50.601Z,2.20
2023-05-09T05:32:54.515Z,2.55
2023-05-09T05:36:00.428Z,2.50
2023-05-09T05:39:44.236Z,1.77
2023-05-09T05:42:57.137Z,2.33
2023-05-09T05:46:04.147Z,2.40
2023-05-09T05:49:09.218Z,2.60
2023-05-09T05:52:15.265Z,3.25
2023-05-09T05:55:20.891Z,7.07
2023-05-09T05:58:32.890Z,2.53
2023-05-09T06:01:39.609Z,3.00
2023-05-09T06:04:43.849Z,2.65
2023-05-09T06:07:51.003Z,2.60
2023-05-09T06:11:08.402Z,2.40
2023-05-09T06:14:12.125Z,4.00
2023-05-09T06:17:16.009Z,2.97
2023-05-09T06:20:28.756Z,3.67
2023-05-09T06:23:32.271Z,2.73
2023-05-09T06:26:36.472Z,3.75
2023-05-09T06:29:40.662Z,3.28
2023-05-09T06:32:44.160Z,3.25
2023-05-09T06:35:48.004Z,3.53
2023-05-09T06:39:03.541Z,3.17
2023-05-09T06:42:11.296Z,4.25
2023-05-09T06:45:16.667Z,4.80
2023-05-09T06:48:19.951Z,2.42
2023-05-09T06:51:33.424Z,5.13
2023-05-09T06:54:46.115Z,5.43
2023-05-09T06:57:49.889Z,3.17
2023-05-09T07:00:57.018Z,3.13
2023-05-09T07:04:14.422Z,3.08
2023-05-09T07:07:20.301Z,4.03
2023-05-09T07:10:34.997Z,3.33
2023-05-09T07:13:40.167Z,2.92
2023-05-09T07:16:47.084Z,5.97
2023-05-09T07:19:53.083Z,3.78
2023-05-09T07:23:00.027Z,4.53
2023-05-09T07:26:04.026Z,5.80
2023-05-09T07:29:20.985Z,3.13
2023-05-09T07:32:25.015Z,3.80
2023-05-09T07:35:30.249Z,5.05
2023-05-09T07:38:48.664Z,3.70
2023-05-09T07:41:56.963Z,2.67
2023-05-09T07:45:01.359Z,3.83
2023-05-09T07:48:12.524Z,7.97
2023-05-09T07:51:20.404Z,3.85
2023-05-09T07:54:32.687Z,4.23
2023-05-09T07:57:38.219Z,2.47
2023-05-09T08:00:45.624Z,6.40
2023-05-09T08:03:53.895Z,2.10
2023-05-09T08:07:12.729Z,3.05
2023-05-09T08:10:17.487Z,2.37
2023-05-09T08:13:36.374Z,4.13
2023-05-09T08:16:44.162Z,3.22
2023-05-09T08:20:18.245Z,2.88
2023-05-09T08:23:41.831Z,1.90
2023-05-09T08:26:45.482Z,3.13
2023-05-09T08:29:49.153Z,3.60
2023-05-09T08:32:56.798Z,2.72
2023-05-09T08:36:09.746Z,2.85
2023-05-09T08:39:20.313Z,3.20
2023-05-09T08:42:26.741Z,4.50
2023-05-09T08:45:36.253Z,2.60
2023-05-09T08:48:48.552Z,5.30
2023-05-09T08:51:53.967Z,2.80
2023-05-09T08:55:07.902Z,3.90
2023-05-09T08:58:15.285Z,5.50
2023-05-09T09:01:36.680Z,3.47
2023-05-09T09:04:49.520Z,2.63
2023-05-09T09:08:00.336Z,3.80
2023-05-09T09:11:07.700Z,3.42
2023-05-09T09:14:23.044Z,4.13
2023-05-09T09:17:30.362Z,3.08
2023-05-09T09:20:36.177Z,4.80
2023-05-09T09:23:46.487Z,4.00
2023-05-09T09:26:53.953Z,3.05
2023-05-09T09:30:13.908Z,5.80
2023-05-09T09:33:25.430Z,2.47
2023-05-09T09:36:38.783Z,3.30
2023-05-09T09:39:55.917Z,4.60
2023-05-09T09:43:08.381Z,3.60
2023-05-09T09:46:12.127Z,2.27
2023-05-09T09:49:20.599Z,4.45
2023-05-09T09:52:34.494Z,2.78
2023-05-09T09:55:52.831Z,4.88
2023-05-09T09:59:25.232Z,5.90
2023-05-09T10:02:59.777Z,3.00
2023-05-09T10:06:21.176Z,2.92
2023-05-09T10:09:37.675Z,2.58
2023-05-09T10:16:43.739Z,2.85
2023-05-09T10:19:56.744Z,5.80
2023-05-09T10:23:08.965Z,3.75
2023-05-09T10:26:41.079Z,2.42
2023-05-09T10:30:42.975Z,4.53
2023-05-09T10:33:58.711Z,3.85
2023-05-09T10:37:09.878Z,2.47
2023-05-09T10:40:26.939Z,2.92
2023-05-09T10:43:49.630Z,2.25
2023-05-09T10:47:09.797Z,2.22
2023-05-09T10:50:30.991Z,2.67
2023-05-09T10:53:53.573Z,2.70
2023-05-09T10:57:19.001Z,3.85
2023-05-09T11:01:16.306Z,2.42
2023-05-09T11:04:38.330Z,5.43
2023-05-09T11:07:48.305Z,3.08
2023-05-09T11:11:08.613Z,3.77
2023-05-09T11:14:31.113Z,3.25
2023-05-09T11:17:40.391Z,4.03
2023-05-09T11:21:00.188Z,4.00
2023-05-09T11:24:38.293Z,3.47
2023-05-09T11:27:53.234Z,3.47
2023-05-09T11:31:28.121Z,2.58
2023-05-09T11:34:31.982Z,3.13
2023-05-09T11:38:01.539Z,3.05
2023-05-09T11:41:16.911Z,4.15
2023-05-09T11:44:30.609Z,2.63
2023-05-09T11:47:51.293Z,3.10
2023-05-09T11:51:08.133Z,2.55
2023-05-09T11:54:21.160Z,12.45
2023-05-09T11:57:44.032Z,2.45
2023-05-09T12:00:54.622Z,2.97
2023-05-09T12:05:14.757Z,2.65
2023-05-09T12:08:38.597Z,5.38
2023-05-09T12:11:55.374Z,3.88
2023-05-09T12:15:11.396Z,3.88
2023-05-09T12:18:19.134Z,4.73
2023-05-09T12:21:31.874Z,4.57
2023-05-09T12:24:46.662Z,3.30
2023-05-09T12:27:54.970Z,6.65
2023-05-09T12:31:03.378Z,6.28
2023-05-09T12:34:11.708Z,4.10
2023-05-09T12:37:22.178Z,4.95
2023-05-09T12:40:29.207Z,4.55
2023-05-09T12:43:34.482Z,4.38
2023-05-09T12:46:39.227Z,2.20
2023-05-09T12:49:44.174Z,4.70
2023-05-09T12:53:02.595Z,3.38
2023-05-09T12:56:40.292Z,3.50
2023-05-09T12:59:49.584Z,2.85
2023-05-09T13:02:54.191Z,2.97
2023-05-09T13:06:23.394Z,5.07
2023-05-09T13:10:19.537Z,2.13
2023-05-09T13:14:13.121Z,4.25
2023-05-09T13:17:24.176Z,4.03
2023-05-09T13:20:52.121Z,6.10
2023-05-09T13:24:02.510Z,2.97
2023-05-09T13:27:25.233Z,3.05
2023-05-09T13:31:21.646Z,4.18
2023-05-09T13:35:23.581Z,3.00
2023-05-09T13:38:10.545Z,2.95
2023-05-09T13:41:53.372Z,2.93
2023-05-09T13:45:00.638Z,2.40
2023-05-09T13:48:09.481Z,2.45
2023-05-09T13:51:36.530Z,4.38
2023-05-09T13:55:22.177Z,3.88
2023-05-09T13:59:37.640Z,5.10
2023-05-09T14:03:47.460Z,3.50
2023-05-09T14:10:31.251Z,5.00
2023-05-09T14:13:49.418Z,3.13
2023-05-09T14:16:55.051Z,3.17
2023-05-09T14:19:58.548Z,2.47
2023-05-09T14:23:06.789Z,3.33
2023-05-09T14:26:14.085Z,3.60
2023-05-09T14:29:17.779Z,3.10
2023-05-09T14:32:22.284Z,2.93
2023-05-09T14:35:34.774Z,6.53
2023-05-09T14:38:40.522Z,2.80
2023-05-09T14:41:43.993Z,4.25
2023-05-09T14:44:47.616Z,3.20
2023-05-09T14:47:54.262Z,3.47
2023-05-09T14:50:58.244Z,3.33
2023-05-09T14:54:04.387Z,5.55
2023-05-09T14:57:08.679Z,2.85
2023-05-09T15:00:21.884Z,2.63
2023-05-09T15:03:26.914Z,4.27
2023-05-09T15:06:35.303Z,2.53
2023-05-09T15:09:42.270Z,2.25
2023-05-09T15:12:46.516Z,2.45
2023-05-09T15:15:52.206Z,4.68
2023-05-09T15:18:55.824Z,4.40
2023-05-09T15:22:00.922Z,2.45
2023-05-09T15:25:06.291Z,2.92
2023-05-09T15:28:14.435Z,3.67
2023-05-09T15:31:21.945Z,4.45
2023-05-09T15:34:26.287Z,4.93
2023-05-09T15:37:30.832Z,3.45
2023-05-09T15:40:34.201Z,4.20
2023-05-09T15:43:40.775Z,2.40
2023-05-09T15:46:44.309Z,3.13
2023-05-09T15:49:47.218Z,3.83
2023-05-09T15:52:52.745Z,4.05
2023-05-09T15:55:57.367Z,2.70
2023-05-09T15:59:00.945Z,3.72
2023-05-09T16:02:06.903Z,3.00
2023-05-09T16:05:12.110Z,2.90
2023-05-09T16:08:18.378Z,2.67
2023-05-09T16:11:21.944Z,4.40
2023-05-09T16:14:25.335Z,3.60
2023-05-09T16:17:32.085Z,2.90
2023-05-09T16:20:35.676Z,6.03
2023-05-09T16:23:40.282Z,3.55
2023-05-09T16:26:43.566Z,3.65
2023-05-09T16:29:47.243Z,3.17
2023-05-09T16:32:52.712Z,2.85
2023-05-09T16:35:56.180Z,4.37
2023-05-09T16:38:59.436Z,3.70
2023-05-09T16:42:02.617Z,4.43
2023-05-09T16:45:07.138Z,6.40
2023-05-09T16:48:10.762Z,5.32
2023-05-09T16:51:14.501Z,4.20
2023-05-09T16:54:17.886Z,3.15
2023-05-09T16:57:21.164Z,4.10
2023-05-09T17:00:24.351Z,4.50
2023-05-09T17:03:27.726Z,3.97
2023-05-09T17:06:31.070Z,3.43
2023-05-09T17:09:34.286Z,5.45
2023-05-09T17:12:40.777Z,5.43
2023-05-09T17:15:44.137Z,3.92
2023-05-09T17:18:47.906Z,4.45
2023-05-09T17:21:53.654Z,4.20
2023-05-09T17:24:57.635Z,3.50
2023-05-09T17:28:00.934Z,6.15
2023-05-09T17:31:04.420Z,5.55
2023-05-09T17:34:10.159Z,5.15
2023-05-09T17:37:14.757Z,4.40
2023-05-09T17:40:18.460Z,7.18
2023-05-09T17:43:22.754Z,11.27
2023-05-09T17:46:26.656Z,5.93
2023-05-09T17:49:30.164Z,36.20
2023-05-09T17:52:34.640Z,47.70
2023-05-09T17:55:39.652Z,42.22
2023-05-09T17:58:45.601Z,42.63
2023-05-09T18:01:49.074Z,72.35
2023-05-09T18:04:52.652Z,36.83
2023-05-09T18:07:56.866Z,27.73
2023-05-09T18:11:00.042Z,15.75
2023-05-09T18:14:03.837Z,8.43
2023-05-09T18:17:07.117Z,11.27
2023-05-09T18:20:10.559Z,11.57
2023-05-09T18:23:15.828Z,10.90
2023-05-09T18:26:19.926Z,8.60
2023-05-09T18:29:23.920Z,9.48
2023-05-09T18:32:27.341Z,8.57
2023-05-09T18:35:30.787Z,7.20
2023-05-09T18:38:38.365Z,6.87
2023-05-09T18:41:43.376Z,7.38
2023-05-09T18:44:46.866Z,8.65
2023-05-09T18:47:50.199Z,6.88
2023-05-09T18:50:53.318Z,7.78
2023-05-09T18:53:56.906Z,9.87
2023-05-09T18:57:00.503Z,7.35
2023-05-09T19:00:03.778Z,7.15
2023-05-09T19:03:07.166Z,6.88
2023-05-09T19:06:10.754Z,6.47
2023-05-09T19:09:13.624Z,8.33
2023-05-09T19:12:17.788Z,10.73
2023-05-09T19:15:21.302Z,12.80
2023-05-09T19:18:24.444Z,11.48
2023-05-09T19:21:28.568Z,8.55
2023-05-09T19:24:33.075Z,8.07
2023-05-09T19:27:36.064Z,7.88
2023-05-09T19:30:39.229Z,9.07
2023-05-09T19:33:45.799Z,10.52
2023-05-09T19:36:49.674Z,7.07
2023-05-09T19:39:53.160Z,7.53
2023-05-09T19:42:56.749Z,6.80
2023-05-09T19:46:00.291Z,6.93
2023-05-09T19:49:04.439Z,6.78
2023-05-09T19:52:08.837Z,6.80
2023-05-09T19:55:16.023Z,7.97
2023-05-09T19:58:20.511Z,6.45
2023-05-09T20:01:24.329Z,10.88
2023-05-09T20:04:27.685Z,5.40
2023-05-09T20:07:31.180Z,9.32
2023-05-09T20:10:34.670Z,9.20
2023-05-09T20:13:38.042Z,6.32
2023-05-09T20:16:42.755Z,6.70
2023-05-09T20:19:46.438Z,6.05
2023-05-09T20:22:49.718Z,5.93
2023-05-09T20:25:53.207Z,6.30
2023-05-09T20:29:01.588Z,7.18
2023-05-09T20:32:04.844Z,7.90
2023-05-09T20:35:08.368Z,4.63
2023-05-09T20:38:12.360Z,6.75
2023-05-09T20:41:15.442Z,7.73
2023-05-09T20:44:19.354Z,8.45
2023-05-09T20:47:26.932Z,6.03
2023-05-09T20:50:30.196Z,8.77
2023-05-09T20:53:35.024Z,8.00
2023-05-09T20:56:37.793Z,9.37
2023-05-09T20:59:40.648Z,6.63
2023-05-09T21:02:43.447Z,6.45
2023-05-09T21:05:46.369Z,6.65
2023-05-09T21:08:49.348Z,6.40
2023-05-09T21:11:52.235Z,6.10
2023-05-09T21:14:55.113Z,5.72
2023-05-09T21:17:57.895Z,5.72
2023-05-09T21:21:03.195Z,5.35
2023-05-09T21:24:09.264Z,6.32
2023-05-09T21:27:12.219Z,5.50
2023-05-09T21:30:15.065Z,6.20
2023-05-09T21:33:18.156Z,6.35
2023-05-09T21:36:21.318Z,5.05
2023-05-09T21:39:24.361Z,5.87
2023-05-09T21:42:27.437Z,4.38
2023-05-09T21:45:30.648Z,5.30
2023-05-09T21:48:33.652Z,5.88
2023-05-09T21:51:36.718Z,8.20
2023-05-09T21:54:39.893Z,5.93
2023-05-09T21:57:43.252Z,6.45
2023-05-09T22:00:46.119Z,5.78
2023-05-09T22:03:49.382Z,8.80
2023-05-09T22:06:54.925Z,6.87
2023-05-09T22:09:57.825Z,5.70
2023-05-09T22:13:00.683Z,5.30
2023-05-09T22:16:04.188Z,6.57
2023-05-09T22:19:07.329Z,4.55
2023-05-09T22:22:10.507Z,6.63
2023-05-09T22:25:13.378Z,5.50
2023-05-09T22:28:16.760Z,8.15
2023-05-09T22:31:22.606Z,7.15
2023-05-09T22:34:25.684Z,5.60
2023-05-09T22:37:28.762Z,9.50
2023-05-09T22:40:32.137Z,6.88
2023-05-09T22:43:39.151Z,5.00
2023-05-09T22:46:45.529Z,5.70
2023-05-09T22:49:49.751Z,8.20
2023-05-09T22:52:53.854Z,5.43
2023-05-09T22:55:57.143Z,6.68
2023-05-09T22:59:00.162Z,5.45
2023-05-09T23:02:03.526Z,5.15
2023-05-09T23:05:07.170Z,8.90
2023-05-09T23:08:10.421Z,5.93
2023-05-09T23:11:13.392Z,4.70
2023-05-09T23:14:16.294Z,4.72
2023-05-09T23:17:19.283Z,4.82
2023-05-09T23:20:22.233Z,5.03
2023-05-09T23:23:25.434Z,4.63
2023-05-09T23:26:31.132Z,5.75
2023-05-09T23:29:34.024Z,5.75
2023-05-09T23:32:37.462Z,6.55
2023-05-09T23:35:40.487Z,7.83
2023-05-09T23:38:43.740Z,5.50
2023-05-09T23:41:46.508Z,5.97
2023-05-09T23:44:49.314Z,5.20
2023-05-09T23:47:53.870Z,6.55
2023-05-09T23:50:56.640Z,6.20
2023-05-09T23:53:59.523Z,7.07
2023-05-09T23:57:02.410Z,5.88
